createdAt,value
2023-04-21T00:01:03.910Z,5.60
2023-04-21T00:03:34.170Z,5.60
2023-04-21T00:06:02.662Z,5.50
2023-04-21T00:08:30.947Z,5.50
2023-04-21T00:10:59.526Z,5.50
2023-04-21T00:13:29.182Z,5.40
2023-04-21T00:15:57.498Z,5.50
2023-04-21T00:18:25.931Z,5.50
2023-04-21T00:20:55.157Z,5.40
2023-04-21T00:23:23.592Z,5.60
2023-04-21T00:25:52.505Z,5.70
2023-04-21T00:28:20.771Z,5.40
2023-04-21T00:30:50.477Z,5.30
2023-04-21T00:33:18.957Z,5.30
2023-04-21T00:35:47.346Z,5.20
2023-04-21T00:38:15.962Z,5.10
2023-04-21T00:40:44.642Z,5.00
2023-04-21T00:43:13.715Z,5.00
2023-04-21T00:45:42.035Z,4.90
2023-04-21T00:48:12.341Z,4.80
2023-04-21T00:50:41.320Z,4.80
2023-04-21T00:53:10.211Z,4.70
2023-04-21T00:55:38.637Z,4.70
2023-04-21T00:58:07.449Z,4.80
2023-04-21T01:00:36.642Z,4.80
2023-04-21T01:03:07.097Z,4.80
2023-04-21T01:05:37.380Z,4.80
2023-04-21T01:08:07.604Z,4.80
2023-04-21T01:10:36.013Z,4.80
2023-04-21T01:13:06.876Z,4.80
2023-04-21T01:15:35.386Z,4.80
2023-04-21T01:18:03.707Z,4.80
2023-04-21T01:20:32.135Z,4.80
2023-04-21T01:23:01.838Z,4.80
2023-04-21T01:25:30.060Z,4.70
2023-04-21T01:27:58.323Z,4.70
2023-04-21T01:30:26.724Z,4.80
2023-04-21T01:32:55.118Z,4.80
2023-04-21T01:35:23.429Z,4.80
2023-04-21T01:38:12.126Z,4.90
2023-04-21T01:40:41.966Z,4.80
2023-04-21T01:43:10.575Z,4.90
2023-04-21T01:45:38.847Z,4.90
2023-04-21T01:48:07.398Z,4.90
2023-04-21T01:50:35.717Z,4.90
2023-04-21T01:53:04.002Z,4.80
2023-04-21T01:55:33.774Z,4.80
2023-04-21T01:58:02.023Z,4.70
2023-04-21T02:00:31.333Z,4.70
2023-04-21T02:02:59.808Z,4.70
2023-04-21T02:05:28.162Z,4.70
2023-04-21T02:07:57.561Z,4.70
2023-04-21T02:10:25.863Z,4.70
2023-04-21T02:12:55.595Z,4.80
2023-04-21T02:15:24.376Z,4.80
2023-04-21T02:17:52.937Z,4.80
2023-04-21T02:20:21.247Z,4.70
2023-04-21T02:22:49.645Z,4.70
2023-04-21T02:25:17.899Z,4.70
2023-04-21T02:27:46.591Z,4.60
2023-04-21T02:30:16.510Z,4.70
2023-04-21T02:32:45.066Z,4.60
2023-04-21T02:35:13.566Z,4.60
2023-04-21T02:37:41.857Z,4.60
2023-04-21T02:40:10.889Z,4.60
2023-04-21T02:42:39.131Z,4.60
2023-04-21T02:45:07.988Z,4.60
2023-04-21T02:47:38.744Z,4.60
2023-04-21T02:50:07.627Z,4.60
2023-04-21T02:52:37.054Z,4.60
2023-04-21T02:55:05.549Z,4.60
2023-04-21T02:57:34.119Z,4.60
2023-04-21T03:00:02.390Z,4.70
2023-04-21T03:02:31.556Z,4.70
2023-04-21T03:05:02.046Z,4.60
2023-04-21T03:07:32.596Z,4.60
2023-04-21T03:10:01.036Z,4.60
2023-04-21T03:12:29.363Z,4.60
2023-04-21T03:14:57.624Z,4.60
2023-04-21T03:17:26.187Z,4.60
2023-04-21T03:19:54.414Z,4.60
2023-04-21T03:22:24.080Z,4.50
2023-04-21T03:24:52.487Z,4.50
2023-04-21T03:27:20.849Z,4.40
2023-04-21T03:29:49.143Z,4.40
2023-04-21T03:32:17.558Z,4.40
2023-04-21T03:34:45.969Z,4.40
2023-04-21T03:37:14.306Z,4.40
2023-04-21T03:39:45.235Z,4.40
2023-04-21T03:42:14.224Z,4.40
2023-04-21T03:44:42.575Z,4.40
2023-04-21T03:47:10.875Z,4.40
2023-04-21T03:49:39.132Z,4.40
2023-04-21T03:52:07.443Z,4.40
2023-04-21T03:54:35.830Z,4.40
2023-04-21T03:57:05.574Z,4.40
2023-04-21T03:59:33.872Z,4.50
2023-04-21T04:02:02.229Z,4.50
2023-04-21T04:04:30.794Z,4.50
2023-04-21T04:06:59.421Z,4.50
2023-04-21T04:09:27.803Z,4.60
2023-04-21T04:11:56.156Z,4.60
2023-04-21T04:14:26.161Z,4.70
2023-04-21T04:16:54.435Z,4.80
2023-04-21T04:19:22.942Z,4.80
2023-04-21T04:21:51.377Z,4.90
2023-04-21T04:24:19.684Z,5.00
2023-04-21T04:26:48.057Z,5.10
2023-04-21T04:29:16.512Z,5.20
2023-04-21T04:31:46.293Z,5.30
2023-04-21T04:34:15.772Z,5.30
2023-04-21T04:36:44.269Z,5.40
2023-04-21T04:39:12.552Z,5.40
2023-04-21T04:41:41.586Z,5.50
2023-04-21T04:44:11.284Z,5.50
2023-04-21T04:46:40.939Z,5.60
2023-04-21T04:49:10.719Z,5.60
2023-04-21T05:13:59.161Z,6.40
2023-04-21T05:16:27.553Z,6.30
2023-04-21T05:18:55.910Z,6.30
2023-04-21T05:21:25.305Z,6.30
2023-04-21T05:23:53.571Z,6.40
2023-04-21T05:26:21.810Z,6.40
2023-04-21T05:28:50.137Z,6.50
2023-04-21T05:31:19.845Z,6.50
2023-04-21T05:33:48.193Z,6.50
2023-04-21T05:36:16.428Z,6.50
2023-04-21T05:38:46.210Z,6.60
2023-04-21T05:41:14.477Z,6.60
2023-04-21T05:43:42.728Z,6.60
2023-04-21T05:46:11.774Z,6.60
2023-04-21T05:48:41.774Z,6.60
2023-04-21T05:51:11.104Z,6.60
2023-04-21T05:53:39.457Z,6.70
2023-04-21T05:56:08.193Z,6.80
2023-04-21T05:58:36.920Z,6.80
2023-04-21T06:01:05.480Z,6.90
2023-04-21T06:03:34.408Z,7.00
2023-04-21T06:06:04.865Z,7.00
2023-04-21T06:08:33.506Z,7.10
2023-04-21T06:11:01.793Z,7.10
2023-04-21T06:13:30.090Z,7.20
2023-04-21T06:15:58.525Z,7.20
2023-04-21T06:18:28.181Z,7.30
2023-04-21T06:20:57.159Z,7.30
2023-04-21T06:23:27.051Z,7.40
2023-04-21T06:26:04.391Z,7.50
2023-04-21T06:28:32.956Z,7.50
2023-04-21T06:31:01.718Z,7.60
2023-04-21T06:33:30.241Z,7.60
2023-04-21T06:35:58.783Z,7.60
2023-04-21T06:38:28.552Z,7.70
2023-04-21T06:40:56.997Z,7.60
2023-04-21T06:43:25.223Z,7.60
2023-04-21T06:45:54.114Z,7.60
2023-04-21T06:48:22.416Z,7.60
2023-04-21T06:50:50.658Z,7.50
2023-04-21T06:53:19.296Z,7.50
2023-04-21T06:55:49.128Z,7.50
2023-04-21T06:58:17.972Z,7.50
2023-04-21T07:00:48.313Z,7.50
2023-04-21T07:03:16.704Z,7.50
2023-04-21T07:05:45.033Z,7.50
2023-04-21T07:08:13.402Z,7.60
2023-04-21T07:10:41.682Z,7.80
2023-04-21T07:13:11.490Z,7.90
2023-04-21T07:15:40.328Z,7.90
2023-04-21T07:18:08.654Z,8.00
2023-04-21T07:20:37.119Z,8.00
2023-04-21T07:23:05.375Z,8.10
2023-04-21T07:25:33.672Z,8.20
2023-04-21T07:28:03.269Z,8.50
2023-04-21T07:30:32.980Z,8.20
2023-04-21T07:33:01.362Z,8.30
2023-04-21T07:35:29.658Z,8.20
2023-04-21T07:37:58.008Z,8.30
2023-04-21T07:40:26.308Z,8.20
2023-04-21T07:42:54.578Z,8.30
2023-04-21T07:45:22.870Z,8.40
2023-04-21T07:47:52.726Z,8.40
2023-04-21T07:50:21.105Z,8.40
2023-04-21T07:52:49.373Z,8.50
2023-04-21T07:55:17.665Z,8.50
2023-04-21T07:57:45.968Z,8.50
2023-04-21T08:00:14.897Z,8.50
2023-04-21T08:02:43.326Z,8.40
2023-04-21T08:05:13.230Z,8.40
2023-04-21T08:07:41.620Z,8.40
2023-04-21T08:10:10.600Z,8.30
2023-04-21T08:12:38.999Z,8.30
2023-04-21T08:15:08.562Z,8.30
2023-04-21T08:17:36.953Z,8.30
2023-04-21T08:20:05.787Z,8.30
2023-04-21T08:22:36.547Z,8.30
2023-04-21T08:25:04.994Z,8.30
2023-04-21T08:27:33.321Z,8.40
2023-04-21T08:30:01.597Z,8.50
2023-04-21T08:32:30.173Z,8.60
2023-04-21T08:34:58.785Z,8.50
2023-04-21T08:37:27.060Z,8.70
2023-04-21T08:39:56.746Z,8.70
2023-04-21T08:42:26.290Z,8.70
2023-04-21T08:44:54.652Z,8.70
2023-04-21T08:47:23.493Z,8.80
2023-04-21T08:49:52.644Z,8.80
2023-04-21T08:52:20.964Z,8.70
2023-04-21T08:54:52.066Z,8.80
2023-04-21T08:57:22.059Z,8.70
2023-04-21T08:59:50.356Z,8.70
2023-04-21T09:02:19.853Z,8.60
2023-04-21T09:04:50.490Z,8.60
2023-04-21T09:07:31.644Z,8.70
2023-04-21T09:10:00.705Z,8.70
2023-04-21T09:12:30.667Z,8.80
2023-04-21T09:14:59.424Z,9.10
2023-04-21T09:17:32.542Z,9.10
2023-04-21T09:20:14.132Z,9.10
2023-04-21T09:22:42.449Z,9.20
2023-04-21T09:25:10.803Z,9.10
2023-04-21T09:27:40.490Z,9.20
2023-04-21T09:30:10.225Z,9.40
2023-04-21T09:32:39.277Z,9.30
2023-04-21T09:35:10.711Z,9.30
2023-04-21T09:37:39.387Z,9.30
2023-04-21T09:40:08.366Z,9.20
2023-04-21T09:42:39.430Z,9.30
2023-04-21T09:47:43.374Z,9.30
2023-04-21T09:50:13.257Z,9.40
2023-04-21T09:52:41.982Z,9.50
2023-04-21T09:55:12.706Z,9.50
2023-04-21T09:57:43.150Z,9.40
2023-04-21T10:00:14.291Z,9.40
2023-04-21T10:02:44.622Z,9.60
2023-04-21T10:05:13.297Z,9.50
2023-04-21T10:07:41.978Z,9.60
2023-04-21T10:10:13.826Z,9.70
2023-04-21T10:12:42.325Z,9.80
2023-04-21T10:15:30.120Z,9.80
2023-04-21T10:18:13.926Z,9.60
2023-04-21T10:21:00.137Z,9.60
2023-04-21T10:23:34.124Z,9.60
2023-04-21T10:26:02.722Z,9.50
2023-04-21T10:28:41.115Z,9.60
2023-04-21T10:31:20.032Z,9.80
2023-04-21T10:34:07.462Z,9.90
2023-04-21T10:36:36.131Z,9.90
2023-04-21T10:39:06.268Z,9.90
2023-04-21T10:41:34.941Z,9.90
2023-04-21T10:44:03.572Z,9.90
2023-04-21T10:46:35.630Z,10.00
2023-04-21T10:49:07.827Z,10.00
2023-04-21T10:52:03.756Z,10.10
2023-04-21T10:54:37.985Z,10.20
2023-04-21T10:57:08.296Z,10.20
2023-04-21T10:59:37.093Z,10.10
2023-04-21T11:02:07.021Z,10.20
2023-04-21T11:04:35.966Z,10.20
2023-04-21T11:07:08.773Z,10.30
2023-04-21T11:09:38.891Z,10.40
2023-04-21T11:12:08.386Z,10.50
2023-04-21T11:14:37.670Z,10.50
2023-04-21T11:17:06.715Z,10.50
2023-04-21T11:19:35.270Z,10.50
2023-04-21T11:22:05.079Z,10.50
2023-04-21T11:24:33.466Z,10.50
2023-04-21T11:27:03.219Z,10.60
2023-04-21T11:29:31.578Z,10.80
2023-04-21T11:32:00.328Z,10.90
2023-04-21T11:34:28.650Z,11.00
2023-04-21T11:36:56.984Z,11.00
2023-04-21T11:39:25.224Z,11.10
2023-04-21T11:41:53.902Z,11.00
2023-04-21T11:44:37.038Z,11.10
2023-04-21T11:47:16.587Z,11.10
2023-04-21T11:49:45.850Z,11.10
2023-04-21T11:52:14.184Z,11.20
2023-04-21T11:54:42.750Z,11.30
2023-04-21T11:57:11.152Z,11.30
2023-04-21T11:59:39.644Z,11.50
2023-04-21T12:02:14.455Z,11.50
2023-04-21T12:04:57.939Z,11.50
2023-04-21T12:07:26.482Z,11.50
2023-04-21T12:09:54.787Z,11.50
2023-04-21T12:12:23.507Z,11.50
2023-04-21T12:14:53.121Z,11.50
2023-04-21T12:17:21.716Z,11.40
2023-04-21T12:19:51.458Z,11.30
2023-04-21T12:22:19.883Z,11.30
2023-04-21T12:24:48.168Z,11.40
2023-04-21T12:27:16.478Z,11.30
2023-04-21T12:29:44.773Z,11.30
2023-04-21T12:32:13.211Z,11.10
2023-04-21T12:34:41.898Z,10.90
2023-04-21T12:37:11.658Z,10.80
2023-04-21T12:39:39.971Z,10.70
2023-04-21T12:42:08.243Z,10.50
2023-04-21T12:44:36.501Z,10.50
2023-04-21T12:47:04.769Z,10.20
2023-04-21T12:49:33.023Z,10.20
2023-04-21T12:52:01.321Z,10.40
2023-04-21T12:54:31.084Z,10.40
2023-04-21T12:56:59.339Z,10.30
2023-04-21T12:59:27.628Z,10.20
2023-04-21T13:01:56.011Z,10.10
2023-04-21T13:04:24.709Z,10.10
2023-04-21T13:06:53.494Z,10.20
2023-04-21T13:09:21.749Z,10.30
2023-04-21T13:11:52.315Z,10.30
2023-04-21T13:14:20.690Z,10.20
2023-04-21T13:16:48.983Z,10.10
2023-04-21T13:19:17.507Z,10.00
2023-04-21T13:21:45.763Z,9.90
2023-04-21T13:24:14.930Z,9.90
2023-04-21T13:26:43.290Z,10.00
2023-04-21T13:29:12.959Z,10.00
2023-04-21T13:31:41.351Z,10.00
2023-04-21T13:34:09.900Z,10.00
2023-04-21T13:36:38.317Z,10.10
2023-04-21T13:39:10.311Z,10.10
2023-04-21T13:41:38.763Z,10.10
2023-04-21T13:44:07.099Z,10.20
2023-04-21T13:46:36.863Z,10.30
2023-04-21T13:49:05.204Z,10.20
2023-04-21T13:51:33.522Z,10.10
2023-04-21T13:54:01.843Z,10.20
2023-04-21T13:56:30.150Z,10.20
2023-04-21T13:58:59.535Z,10.20
2023-04-21T14:01:27.963Z,10.20
2023-04-21T14:03:58.206Z,10.10
2023-04-21T14:06:26.927Z,10.20
2023-04-21T14:08:55.272Z,10.20
2023-04-21T14:11:23.626Z,10.30
2023-04-21T14:14:08.343Z,10.30
2023-04-21T14:16:38.542Z,10.30
2023-04-21T14:19:08.707Z,10.30
2023-04-21T14:21:36.939Z,10.20
2023-04-21T14:24:05.432Z,10.40
2023-04-21T14:26:33.711Z,10.50
2023-04-21T14:29:02.474Z,10.50
2023-04-21T14:31:30.801Z,10.60
2023-04-21T14:33:59.062Z,10.70
2023-04-21T14:36:29.131Z,10.70
2023-04-21T14:38:57.501Z,10.80
2023-04-21T14:41:25.807Z,10.90
2023-04-21T14:43:56.689Z,11.00
2023-04-21T14:46:25.425Z,11.10
2023-04-21T14:48:53.874Z,11.20
2023-04-21T14:51:22.181Z,11.30
2023-04-21T14:53:52.251Z,11.30
2023-04-21T14:56:20.754Z,11.20
2023-04-21T14:58:49.260Z,11.20
2023-04-21T15:01:17.584Z,11.20
2023-04-21T15:03:46.170Z,11.30
2023-04-21T15:06:16.266Z,11.30
2023-04-21T15:08:44.634Z,11.30
2023-04-21T15:11:14.464Z,11.40
2023-04-21T15:13:42.775Z,11.50
2023-04-21T15:16:11.163Z,11.50
2023-04-21T15:18:39.504Z,11.60
2023-04-21T15:21:08.057Z,11.70
2023-04-21T15:23:36.398Z,11.70
2023-04-21T15:26:04.846Z,11.70
2023-04-21T15:28:36.105Z,11.60
2023-04-21T15:31:04.770Z,11.50
2023-04-21T15:33:33.542Z,11.70
2023-04-21T15:36:02.731Z,11.80
2023-04-21T15:41:01.689Z,11.70
2023-04-21T15:46:00.283Z,11.30
2023-04-21T15:48:28.708Z,11.10
2023-04-21T15:50:57.525Z,10.90
2023-04-21T15:53:25.925Z,10.80
2023-04-21T15:55:55.472Z,10.60
2023-04-21T15:58:23.879Z,10.50
2023-04-21T16:00:52.486Z,10.30
2023-04-21T16:03:23.475Z,10.20
2023-04-21T16:05:52.141Z,10.10
2023-04-21T16:08:20.663Z,10.10
2023-04-21T16:10:49.035Z,10.10
2023-04-21T16:13:17.428Z,10.10
2023-04-21T16:15:45.948Z,10.10
2023-04-21T16:18:14.534Z,10.00
2023-04-21T16:20:46.151Z,9.80
2023-04-21T16:23:15.450Z,9.80
2023-04-21T16:25:44.147Z,9.70
2023-04-21T16:28:12.726Z,9.70
2023-04-21T16:30:43.619Z,9.70
2023-04-21T16:33:13.258Z,9.70
2023-04-21T16:35:41.755Z,9.60
2023-04-21T16:38:11.705Z,9.50
2023-04-21T16:40:40.115Z,9.50
2023-04-21T16:43:08.461Z,9.50
2023-04-21T16:45:37.101Z,9.40
2023-04-21T16:48:05.628Z,9.40
2023-04-21T16:50:35.312Z,9.30
2023-04-21T16:53:03.711Z,9.20
2023-04-21T16:55:33.501Z,9.10
2023-04-21T16:58:01.936Z,9.00
2023-04-21T17:00:30.523Z,9.00
2023-04-21T17:02:59.031Z,9.00
2023-04-21T17:05:27.457Z,8.90
2023-04-21T17:07:57.900Z,8.90
2023-04-21T17:10:27.174Z,8.90
2023-04-21T17:12:57.904Z,8.90
2023-04-21T17:15:26.225Z,8.90
2023-04-21T17:17:54.704Z,8.80
2023-04-21T17:20:23.227Z,8.80
2023-04-21T17:22:52.076Z,8.70
2023-04-21T17:25:20.532Z,8.70
2023-04-21T17:27:49.019Z,8.70
2023-04-21T17:30:19.119Z,8.60
2023-04-21T17:32:47.599Z,8.50
2023-04-21T17:35:16.009Z,8.70
2023-04-21T17:40:13.138Z,8.40
2023-04-21T17:42:41.955Z,8.30
2023-04-21T17:45:10.474Z,8.20
2023-04-21T17:47:40.282Z,8.10
2023-04-21T17:50:10.095Z,8.00
2023-04-21T17:52:38.492Z,7.80
2023-04-21T17:55:13.403Z,7.80
2023-04-21T18:02:42.371Z,7.80
2023-04-21T18:25:08.176Z,7.20
2023-04-21T18:27:36.748Z,7.10
2023-04-21T18:30:05.702Z,7.00
2023-04-21T18:32:34.923Z,7.00
2023-04-21T18:35:04.120Z,7.00
2023-04-21T18:37:32.626Z,6.90
2023-04-21T18:40:01.056Z,6.90
2023-04-21T18:42:30.817Z,6.90
2023-04-21T18:44:59.611Z,6.90
2023-04-21T18:47:28.260Z,6.80
2023-04-21T18:49:56.839Z,6.70
2023-04-21T18:52:25.317Z,6.60
2023-04-21T18:54:54.678Z,6.60
2023-04-21T18:57:22.990Z,6.50
2023-04-21T18:59:53.064Z,6.50
2023-04-21T19:02:21.603Z,6.50
2023-04-21T19:04:50.408Z,6.50
2023-04-21T19:07:18.785Z,6.50
2023-04-21T19:09:47.054Z,6.50
2023-04-21T19:12:16.630Z,6.50
2023-04-21T19:14:47.534Z,6.40
2023-04-21T19:17:17.868Z,6.40
2023-04-21T19:19:46.561Z,6.40
2023-04-21T19:22:14.814Z,6.30
2023-04-21T19:24:43.316Z,6.30
2023-04-21T19:27:11.675Z,6.30
2023-04-21T19:29:40.125Z,6.30
2023-04-21T19:32:08.519Z,6.20
2023-04-21T19:34:38.858Z,6.20
2023-04-21T19:37:07.805Z,6.20
2023-04-21T19:39:36.158Z,6.20
2023-04-21T19:42:05.844Z,6.10
2023-04-21T19:44:34.411Z,6.10
2023-04-21T19:47:02.914Z,6.10
2023-04-21T19:49:31.287Z,6.10
2023-04-21T19:52:01.325Z,6.10
2023-04-21T19:54:29.782Z,6.20
2023-04-21T19:56:58.268Z,6.20
2023-04-21T19:59:26.763Z,6.20
2023-04-21T20:01:55.080Z,6.20
2023-04-21T20:04:23.629Z,6.20
2023-04-21T20:06:53.313Z,6.20
2023-04-21T20:09:22.997Z,6.10
2023-04-21T20:11:51.382Z,6.10
2023-04-21T20:14:20.463Z,6.10
2023-04-21T20:16:49.793Z,6.00
2023-04-21T20:19:18.379Z,6.00
2023-04-21T20:21:46.776Z,6.00
2023-04-21T20:24:17.935Z,6.00
2023-04-21T20:26:48.640Z,6.00
2023-04-21T20:29:17.072Z,6.00
2023-04-21T20:31:45.810Z,6.00
2023-04-21T20:34:14.338Z,6.00
2023-04-21T20:36:42.749Z,6.00
2023-04-21T20:39:11.756Z,6.00
2023-04-21T20:41:40.106Z,6.00
2023-04-21T20:44:09.876Z,6.10
2023-04-21T20:46:38.489Z,6.10
2023-04-21T20:49:07.174Z,6.10
2023-04-21T20:51:35.505Z,6.10
2023-04-21T20:54:03.879Z,6.10
2023-04-21T20:56:33.326Z,6.10
2023-04-21T20:59:01.890Z,6.10
2023-04-21T21:01:36.976Z,6.10
2023-04-21T21:04:05.508Z,6.10
2023-04-21T21:06:34.151Z,6.00
2023-04-21T21:09:02.491Z,6.00
2023-04-21T21:11:30.984Z,6.00
2023-04-21T21:13:59.377Z,6.00
2023-04-21T21:16:27.987Z,6.00
2023-04-21T21:18:57.805Z,6.00
2023-04-21T21:21:26.567Z,6.00
2023-04-21T21:23:55.210Z,6.00
2023-04-21T21:26:24.763Z,6.10
2023-04-21T21:28:53.619Z,6.10
2023-04-21T21:31:21.899Z,6.10
2023-04-21T21:33:50.357Z,6.00
2023-04-21T21:36:20.277Z,6.10
2023-04-21T21:38:49.701Z,6.00
2023-04-21T21:41:19.816Z,6.00
2023-04-21T21:43:48.386Z,6.10
2023-04-21T21:46:18.803Z,6.00
2023-04-21T21:48:47.198Z,6.00
2023-04-21T21:51:15.531Z,6.00
2023-04-21T21:53:45.317Z,6.00
2023-04-21T21:56:14.596Z,6.10
2023-04-21T21:58:43.118Z,6.00
2023-04-21T22:01:11.781Z,6.10
2023-04-21T22:03:40.495Z,6.00
2023-04-21T22:06:09.346Z,6.00
2023-04-21T22:08:38.788Z,6.00
2023-04-21T22:11:08.512Z,6.00
2023-04-21T22:13:36.817Z,6.00
2023-04-21T22:16:06.200Z,6.00
2023-04-21T22:18:34.654Z,6.00
2023-04-21T22:21:03.120Z,6.00
2023-04-21T22:23:32.190Z,6.00
2023-04-21T22:26:00.399Z,5.90
2023-04-21T22:28:31.252Z,5.90
2023-04-21T22:30:59.711Z,5.80
2023-04-21T22:33:28.067Z,5.80
2023-04-21T22:35:58.023Z,5.80
2023-04-21T22:38:26.425Z,5.70
2023-04-21T22:40:54.859Z,5.70
2023-04-21T22:43:23.961Z,5.70
2023-04-21T22:45:53.856Z,5.80
2023-04-21T22:48:26.458Z,5.80
2023-04-21T22:50:55.639Z,5.90
2023-04-21T22:53:23.923Z,5.90
2023-04-21T22:55:53.082Z,5.90
2023-04-21T22:58:21.464Z,5.90
2023-04-21T23:00:49.917Z,5.90
2023-04-21T23:03:19.907Z,5.80
2023-04-21T23:05:48.333Z,5.80
2023-04-21T23:08:16.801Z,5.80
2023-04-21T23:10:45.337Z,5.80
2023-04-21T23:13:14.001Z,5.70
2023-04-21T23:15:42.671Z,5.70
2023-04-21T23:18:11.281Z,5.70
2023-04-21T23:20:41.069Z,5.70
2023-04-21T23:23:09.471Z,5.70
2023-04-21T23:25:37.835Z,5.70
2023-04-21T23:28:06.162Z,5.70
2023-04-21T23:30:34.695Z,5.70
2023-04-21T23:33:04.205Z,5.70
2023-04-21T23:35:32.739Z,5.70
2023-04-21T23:38:02.506Z,5.70
2023-04-21T23:40:30.779Z,5.70
2023-04-21T23:42:59.381Z,5.70
2023-04-21T23:45:27.715Z,5.60
2023-04-21T23:47:56.273Z,5.60
2023-04-21T23:50:24.629Z,5.60
2023-04-21T23:52:53.041Z,5.60
2023-04-21T23:55:22.936Z,5.50
2023-04-21T23:57:51.451Z,5.50
